createdAt,value
2022-08-26T00:00:52.373Z,40.90
2022-08-26T00:03:21.080Z,40.80
2022-08-26T00:05:50.948Z,40.90
2022-08-26T00:08:21.299Z,40.90
2022-08-26T00:10:49.441Z,41.00
2022-08-26T00:13:19.537Z,40.80
2022-08-26T00:15:47.917Z,40.90
2022-08-26T00:18:22.207Z,40.90
2022-08-26T00:20:51.751Z,40.90
2022-08-26T00:23:20.454Z,41.00
2022-08-26T00:25:52.706Z,40.90
2022-08-26T00:28:21.570Z,41.00
2022-08-26T00:30:51.563Z,41.70
2022-08-26T00:33:22.616Z,41.10
2022-08-26T00:35:51.577Z,41.10
2022-08-26T00:38:22.267Z,41.10
2022-08-26T00:40:55.142Z,41.10
2022-08-26T00:43:24.667Z,41.10
2022-08-26T00:45:58.662Z,41.20
2022-08-26T00:48:31.871Z,40.60
2022-08-26T00:51:03.466Z,41.20
2022-08-26T00:53:36.660Z,41.10
2022-08-26T00:56:08.994Z,41.10
2022-08-26T00:58:43.089Z,41.20
2022-08-26T01:01:12.512Z,41.30
2022-08-26T01:03:43.335Z,41.40
2022-08-26T01:06:13.221Z,41.40
2022-08-26T01:08:42.525Z,41.50
2022-08-26T01:11:12.302Z,41.40
2022-08-26T01:13:40.877Z,41.50
2022-08-26T01:16:12.818Z,41.50
2022-08-26T01:18:43.998Z,41.60
2022-08-26T01:21:19.114Z,41.60
2022-08-26T01:23:51.823Z,41.50
2022-08-26T01:26:29.603Z,41.60
2022-08-26T01:29:00.289Z,41.70
2022-08-26T01:31:31.838Z,42.30
2022-08-26T01:34:06.616Z,41.70
2022-08-26T01:36:38.519Z,41.90
2022-08-26T01:39:08.741Z,41.80
2022-08-26T01:41:38.025Z,41.80
2022-08-26T01:44:09.833Z,41.90
2022-08-26T01:46:38.480Z,42.00
2022-08-26T01:49:09.353Z,41.90
2022-08-26T01:51:39.779Z,42.10
2022-08-26T01:54:11.871Z,42.10
2022-08-26T01:56:42.209Z,42.10
2022-08-26T01:59:15.560Z,42.20
2022-08-26T02:01:45.598Z,42.20
2022-08-26T02:04:18.663Z,42.30
2022-08-26T02:06:48.193Z,42.30
2022-08-26T02:09:17.917Z,42.40
2022-08-26T02:11:46.238Z,42.30
2022-08-26T02:14:20.983Z,42.40
2022-08-26T02:16:51.925Z,42.40
2022-08-26T02:19:23.788Z,42.40
2022-08-26T02:21:54.072Z,42.50
2022-08-26T02:24:27.799Z,42.60
2022-08-26T02:26:57.390Z,42.60
2022-08-26T02:29:30.284Z,42.70
2022-08-26T02:31:59.578Z,42.70
2022-08-26T02:34:31.023Z,42.70
2022-08-26T02:37:00.690Z,42.80
2022-08-26T02:39:31.248Z,42.80
2022-08-26T02:42:00.293Z,42.80
2022-08-26T02:44:28.654Z,42.90
2022-08-26T02:46:57.288Z,43.00
2022-08-26T02:49:26.549Z,43.10
2022-08-26T02:51:55.025Z,43.10
2022-08-26T02:54:23.540Z,43.00
2022-08-26T02:56:53.110Z,42.90
2022-08-26T02:59:24.413Z,43.20
2022-08-26T03:01:56.097Z,43.10
2022-08-26T03:04:25.883Z,43.10
2022-08-26T03:06:55.437Z,43.20
2022-08-26T03:09:23.571Z,43.30
2022-08-26T03:11:55.462Z,43.30
2022-08-26T03:14:24.836Z,43.30
2022-08-26T03:16:54.439Z,43.30
2022-08-26T03:19:24.860Z,43.30
2022-08-26T03:21:57.975Z,43.30
2022-08-26T03:24:27.693Z,43.40
2022-08-26T03:26:56.981Z,43.30
2022-08-26T03:29:42.878Z,43.40
2022-08-26T03:32:11.690Z,43.50
2022-08-26T03:34:39.832Z,43.50
2022-08-26T03:37:07.995Z,43.60
2022-08-26T03:39:36.908Z,43.00
2022-08-26T03:42:06.963Z,43.10
2022-08-26T03:44:35.753Z,43.70
2022-08-26T03:47:04.797Z,43.70
2022-08-26T03:49:35.921Z,44.90
2022-08-26T03:52:05.055Z,43.70
2022-08-26T03:54:33.877Z,44.00
2022-08-26T03:57:02.210Z,46.70
2022-08-26T03:59:32.079Z,47.90
2022-08-26T04:02:00.401Z,50.40
2022-08-26T04:04:28.963Z,45.40
2022-08-26T04:06:58.669Z,45.20
2022-08-26T04:09:28.580Z,45.30
2022-08-26T04:11:58.697Z,45.10
2022-08-26T04:14:28.488Z,45.60
2022-08-26T04:16:58.421Z,61.50
2022-08-26T04:19:27.456Z,45.20
2022-08-26T04:21:55.943Z,46.10
2022-08-26T04:24:27.873Z,46.10
2022-08-26T04:26:56.631Z,46.30
2022-08-26T04:29:26.832Z,46.50
2022-08-26T04:31:57.169Z,46.50
2022-08-26T04:34:28.545Z,49.40
2022-08-26T04:36:57.725Z,46.00
2022-08-26T04:39:27.546Z,46.70
2022-08-26T04:41:57.816Z,46.90
2022-08-26T04:44:28.530Z,47.00
2022-08-26T04:46:59.568Z,47.00
2022-08-26T04:49:28.038Z,47.10
2022-08-26T04:52:03.821Z,47.00
2022-08-26T04:54:32.807Z,47.00
2022-08-26T04:57:01.199Z,47.00
2022-08-26T04:59:29.329Z,47.20
2022-08-26T05:01:59.691Z,47.30
2022-08-26T05:04:28.149Z,47.10
2022-08-26T05:07:02.758Z,47.70
2022-08-26T05:09:31.370Z,47.60
2022-08-26T05:11:59.536Z,47.90
2022-08-26T05:14:27.970Z,48.00
2022-08-26T05:16:56.141Z,48.00
2022-08-26T05:19:27.975Z,47.90
2022-08-26T05:21:56.201Z,47.80
2022-08-26T05:24:24.695Z,47.70
2022-08-26T05:26:53.100Z,47.60
2022-08-26T05:29:21.230Z,47.50
2022-08-26T05:31:53.406Z,47.50
2022-08-26T05:34:25.793Z,47.40
2022-08-26T05:36:58.541Z,47.10
2022-08-26T05:39:26.689Z,47.00
2022-08-26T05:41:54.838Z,47.10
2022-08-26T05:44:22.947Z,47.50
2022-08-26T05:46:51.704Z,48.00
2022-08-26T05:49:20.377Z,48.10
2022-08-26T05:51:52.096Z,48.10
2022-08-26T05:54:22.147Z,48.60
2022-08-26T05:56:51.186Z,48.70
2022-08-26T05:59:24.234Z,48.80
2022-08-26T06:01:53.439Z,49.10
2022-08-26T06:04:22.461Z,49.20
2022-08-26T06:06:54.392Z,48.80
2022-08-26T06:09:22.495Z,49.30
2022-08-26T06:11:51.702Z,49.40
2022-08-26T06:14:19.869Z,49.50
2022-08-26T06:16:48.348Z,48.90
2022-08-26T06:19:17.433Z,48.80
2022-08-26T06:21:51.300Z,48.80
2022-08-26T06:24:41.479Z,48.90
2022-08-26T06:27:13.887Z,48.40
2022-08-26T06:29:43.571Z,48.50
2022-08-26T06:32:11.729Z,48.50
2022-08-26T06:34:39.855Z,48.80
2022-08-26T06:37:08.889Z,48.90
2022-08-26T06:39:41.131Z,48.80
2022-08-26T06:42:11.765Z,48.30
2022-08-26T06:44:40.963Z,48.30
2022-08-26T06:47:09.320Z,48.90
2022-08-26T06:49:37.449Z,48.70
2022-08-26T06:52:05.678Z,48.80
2022-08-26T06:54:33.869Z,49.00
2022-08-26T06:57:03.466Z,49.20
2022-08-26T06:59:32.234Z,49.10
2022-08-26T07:02:00.408Z,48.90
2022-08-26T07:04:30.446Z,49.20
2022-08-26T07:06:58.739Z,48.80
2022-08-26T07:09:29.257Z,49.30
2022-08-26T07:11:58.313Z,49.60
2022-08-26T07:14:27.943Z,49.30
2022-08-26T07:16:55.898Z,49.30
2022-08-26T07:19:30.066Z,48.90
2022-08-26T07:21:58.862Z,49.00
2022-08-26T07:24:28.520Z,49.40
2022-08-26T07:27:00.545Z,50.30
2022-08-26T07:29:30.334Z,49.40
2022-08-26T07:31:58.491Z,49.20
2022-08-26T07:34:28.148Z,50.00
2022-08-26T07:36:57.053Z,50.50
2022-08-26T07:39:26.373Z,49.80
2022-08-26T07:41:55.071Z,49.70
2022-08-26T07:44:24.040Z,50.20
2022-08-26T07:46:53.926Z,50.20
2022-08-26T07:49:23.257Z,50.30
2022-08-26T07:51:51.939Z,50.30
2022-08-26T07:54:20.533Z,50.40
2022-08-26T07:56:56.041Z,49.90
2022-08-26T07:59:24.397Z,49.70
2022-08-26T08:01:54.004Z,49.50
2022-08-26T08:04:26.366Z,49.30
2022-08-26T08:06:55.474Z,49.10
2022-08-26T08:09:23.900Z,49.10
2022-08-26T08:11:53.154Z,49.10
2022-08-26T08:14:22.343Z,48.90
2022-08-26T08:16:51.124Z,48.50
2022-08-26T08:19:29.860Z,48.80
2022-08-26T08:22:17.373Z,48.60
2022-08-26T08:24:49.694Z,48.10
2022-08-26T08:27:22.938Z,48.10
2022-08-26T08:29:54.267Z,47.70
2022-08-26T08:32:23.392Z,47.90
2022-08-26T08:34:52.997Z,47.50
2022-08-26T08:37:21.128Z,47.40
2022-08-26T08:39:49.795Z,47.50
2022-08-26T08:42:39.081Z,46.90
2022-08-26T08:45:13.904Z,46.90
2022-08-26T08:47:45.558Z,46.90
2022-08-26T08:50:22.821Z,46.60
2022-08-26T08:52:57.414Z,46.60
2022-08-26T08:55:31.482Z,46.50
2022-08-26T08:58:06.680Z,46.40
2022-08-26T09:00:47.697Z,46.40
2022-08-26T09:03:32.329Z,46.40
2022-08-26T09:06:04.602Z,46.20
2022-08-26T09:08:36.952Z,46.20
2022-08-26T09:11:05.533Z,45.90
2022-08-26T09:13:36.131Z,45.70
2022-08-26T09:16:10.364Z,45.70
2022-08-26T09:18:54.650Z,45.80
2022-08-26T09:21:25.529Z,45.60
2022-08-26T09:23:56.852Z,45.20
2022-08-26T09:26:29.665Z,45.30
2022-08-26T09:29:02.768Z,45.10
2022-08-26T09:31:32.539Z,44.90
2022-08-26T09:34:17.155Z,44.80
2022-08-26T09:36:49.537Z,45.00
2022-08-26T09:39:34.034Z,44.70
2022-08-26T09:42:11.234Z,44.50
2022-08-26T09:44:57.178Z,44.30
2022-08-26T09:47:33.378Z,44.00
2022-08-26T09:50:09.577Z,44.10
2022-08-26T09:52:40.589Z,43.80
2022-08-26T09:55:16.131Z,43.40
2022-08-26T09:57:51.172Z,43.20
2022-08-26T10:00:29.555Z,43.40
2022-08-26T10:02:58.411Z,43.10
2022-08-26T10:05:33.247Z,42.90
2022-08-26T10:08:21.115Z,42.90
2022-08-26T10:10:52.979Z,42.90
2022-08-26T10:13:26.617Z,43.60
2022-08-26T10:16:04.603Z,43.60
2022-08-26T10:18:36.800Z,42.90
2022-08-26T10:21:10.872Z,42.90
2022-08-26T10:23:45.310Z,42.80
2022-08-26T10:26:19.317Z,42.40
2022-08-26T10:28:53.700Z,42.40
2022-08-26T10:31:28.913Z,42.40
2022-08-26T10:34:00.081Z,42.60
2022-08-26T10:37:14.865Z,42.60
2022-08-26T10:39:51.863Z,42.60
2022-08-26T10:42:30.448Z,42.70
2022-08-26T10:45:05.425Z,42.90
2022-08-26T10:47:41.367Z,42.70
2022-08-26T10:50:10.572Z,42.80
2022-08-26T10:52:53.782Z,42.80
2022-08-26T10:55:29.443Z,42.70
2022-08-26T10:58:14.644Z,42.10
2022-08-26T11:01:23.040Z,41.70
2022-08-26T11:03:58.759Z,41.90
2022-08-26T11:06:29.735Z,42.20
2022-08-26T11:08:59.614Z,41.80
2022-08-26T11:11:47.990Z,41.80
2022-08-26T11:14:53.104Z,41.60
2022-08-26T11:17:56.517Z,42.00
2022-08-26T11:20:34.969Z,42.50
2022-08-26T11:23:50.695Z,43.00
2022-08-26T11:26:37.617Z,43.20
2022-08-26T11:29:13.550Z,42.40
2022-08-26T11:31:57.220Z,42.50
2022-08-26T11:34:55.169Z,42.50
2022-08-26T11:37:32.988Z,43.10
2022-08-26T11:40:03.140Z,43.10
2022-08-26T11:42:37.671Z,42.70
2022-08-26T11:45:23.756Z,42.50
2022-08-26T11:47:51.953Z,42.50
2022-08-26T11:50:23.477Z,42.30
2022-08-26T11:53:01.546Z,42.80
2022-08-26T11:55:30.768Z,43.20
2022-08-26T11:58:01.905Z,43.30
2022-08-26T12:00:49.792Z,42.90
2022-08-26T12:03:20.849Z,43.00
2022-08-26T12:05:53.390Z,42.50
2022-08-26T12:08:27.794Z,42.70
2022-08-26T12:11:04.487Z,43.10
2022-08-26T12:13:32.807Z,43.20
2022-08-26T12:16:02.811Z,42.80
2022-08-26T12:18:33.806Z,42.10
2022-08-26T12:21:10.977Z,41.70
2022-08-26T12:23:43.925Z,41.70
2022-08-26T12:26:19.461Z,42.20
2022-08-26T12:28:51.448Z,42.20
2022-08-26T12:31:33.379Z,42.10
2022-08-26T12:34:04.130Z,41.30
2022-08-26T12:36:36.171Z,41.60
2022-08-26T12:39:09.189Z,41.60
2022-08-26T12:41:50.814Z,42.00
2022-08-26T12:44:42.662Z,41.70
2022-08-26T12:47:41.773Z,41.60
2022-08-26T12:50:17.529Z,42.00
2022-08-26T12:52:55.436Z,41.80
2022-08-26T12:55:27.742Z,41.40
2022-08-26T12:58:11.869Z,40.80
2022-08-26T13:00:42.925Z,41.00
2022-08-26T13:03:43.452Z,40.80
2022-08-26T13:06:30.021Z,40.60
2022-08-26T13:08:59.664Z,40.60
2022-08-26T13:11:30.509Z,40.00
2022-08-26T13:14:01.052Z,40.30
2022-08-26T13:16:30.115Z,40.20
2022-08-26T13:19:02.032Z,40.40
2022-08-26T13:21:32.049Z,39.70
2022-08-26T13:24:08.577Z,39.60
2022-08-26T13:26:36.812Z,39.10
2022-08-26T13:29:10.136Z,38.80
2022-08-26T13:31:41.613Z,39.00
2022-08-26T13:34:14.252Z,38.30
2022-08-26T13:36:44.931Z,38.10
2022-08-26T13:39:13.762Z,38.30
2022-08-26T13:41:42.442Z,38.50
2022-08-26T13:44:10.718Z,38.50
2022-08-26T13:46:39.086Z,38.80
2022-08-26T13:49:07.921Z,38.70
2022-08-26T13:51:38.456Z,38.80
2022-08-26T13:54:07.663Z,38.90
2022-08-26T13:56:36.749Z,38.90
2022-08-26T13:59:04.854Z,39.00
2022-08-26T14:01:33.456Z,39.20
2022-08-26T14:04:03.080Z,39.30
2022-08-26T14:06:31.737Z,39.50
2022-08-26T14:09:01.515Z,39.90
2022-08-26T14:11:30.193Z,40.10
2022-08-26T14:14:09.301Z,40.20
2022-08-26T14:16:59.004Z,40.40
2022-08-26T14:19:29.679Z,40.70
2022-08-26T14:21:58.874Z,41.50
2022-08-26T14:24:28.849Z,41.50
2022-08-26T14:26:57.037Z,41.80
2022-08-26T14:29:25.153Z,42.10
2022-08-26T14:31:54.588Z,42.20
2022-08-26T14:34:22.708Z,42.40
2022-08-26T14:36:50.841Z,42.70
2022-08-26T14:39:18.970Z,42.90
2022-08-26T14:41:54.426Z,43.00
2022-08-26T14:44:24.482Z,43.00
2022-08-26T14:46:53.710Z,43.00
2022-08-26T14:49:22.255Z,43.30
2022-08-26T14:51:50.646Z,43.50
2022-08-26T14:54:18.809Z,43.40
2022-08-26T14:56:51.252Z,43.90
2022-08-26T14:59:21.548Z,44.00
2022-08-26T15:01:50.083Z,44.20
2022-08-26T15:04:18.624Z,44.40
2022-08-26T15:06:47.369Z,44.60
2022-08-26T15:09:15.882Z,44.50
2022-08-26T15:11:44.567Z,44.90
2022-08-26T15:14:19.486Z,45.00
2022-08-26T15:16:49.529Z,45.10
2022-08-26T15:19:18.677Z,44.70
2022-08-26T15:21:47.429Z,45.10
2022-08-26T15:24:18.187Z,45.70
2022-08-26T15:26:47.285Z,45.00
2022-08-26T15:29:16.909Z,45.00
2022-08-26T15:31:45.117Z,44.60
2022-08-26T15:34:16.747Z,44.40
2022-08-26T15:36:46.794Z,44.30
2022-08-26T15:39:16.369Z,44.30
2022-08-26T15:41:44.607Z,44.20
2022-08-26T15:44:14.035Z,44.90
2022-08-26T15:46:43.974Z,45.40
2022-08-26T15:49:12.148Z,45.60
2022-08-26T15:51:47.974Z,45.80
2022-08-26T15:54:16.756Z,46.00
2022-08-26T15:56:45.430Z,45.90
2022-08-26T15:59:16.280Z,46.30
2022-08-26T16:01:46.164Z,46.50
2022-08-26T16:04:14.913Z,46.80
2022-08-26T16:06:43.791Z,46.90
2022-08-26T16:09:12.291Z,46.70
2022-08-26T16:11:40.438Z,46.80
2022-08-26T16:14:08.928Z,47.00
2022-08-26T16:16:40.089Z,47.30
2022-08-26T16:19:10.145Z,47.70
2022-08-26T16:21:38.418Z,47.60
2022-08-26T16:24:06.914Z,47.60
2022-08-26T16:26:38.026Z,47.40
2022-08-26T16:29:08.672Z,47.40
2022-08-26T16:31:37.946Z,47.70
2022-08-26T16:34:06.200Z,47.50
2022-08-26T16:36:36.145Z,47.50
2022-08-26T16:39:06.113Z,47.60
2022-08-26T16:41:35.106Z,47.40
2022-08-26T16:44:03.823Z,47.50
2022-08-26T16:46:32.374Z,47.50
2022-08-26T16:49:03.583Z,47.70
2022-08-26T16:51:32.448Z,47.80
2022-08-26T16:54:08.987Z,47.60
2022-08-26T16:56:37.931Z,47.40
2022-08-26T16:59:09.543Z,47.60
2022-08-26T17:01:37.753Z,47.80
2022-08-26T17:04:05.951Z,48.00
2022-08-26T17:06:34.172Z,48.20
2022-08-26T17:09:02.346Z,48.50
2022-08-26T17:11:32.068Z,48.80
2022-08-26T17:14:00.344Z,49.00
2022-08-26T17:16:28.547Z,49.00
2022-08-26T17:18:57.655Z,49.50
2022-08-26T17:21:26.930Z,48.90
2022-08-26T17:23:56.285Z,49.70
2022-08-26T17:26:24.465Z,49.50
2022-08-26T17:28:54.238Z,50.00
2022-08-26T17:31:24.387Z,50.00
2022-08-26T17:33:53.426Z,50.30
2022-08-26T17:36:23.029Z,50.00
2022-08-26T17:38:57.069Z,49.40
2022-08-26T17:41:25.402Z,49.70
2022-08-26T17:43:55.101Z,49.90
2022-08-26T17:46:23.760Z,49.70
2022-08-26T17:48:51.941Z,49.60
2022-08-26T17:51:22.957Z,49.70
2022-08-26T17:53:52.145Z,50.50
2022-08-26T17:56:23.948Z,54.40
2022-08-26T17:58:54.488Z,56.00
2022-08-26T18:01:23.543Z,56.90
2022-08-26T18:03:51.918Z,57.50
2022-08-26T18:06:22.025Z,57.80
2022-08-26T18:08:51.973Z,58.20
2022-08-26T18:11:24.496Z,58.40
2022-08-26T18:13:54.235Z,58.70
2022-08-26T18:16:22.706Z,58.80
2022-08-26T18:18:53.309Z,58.90
2022-08-26T18:21:23.901Z,59.00
2022-08-26T18:23:53.109Z,59.30
2022-08-26T18:26:24.102Z,59.60
2022-08-26T18:28:52.785Z,59.60
2022-08-26T18:31:22.620Z,59.70
2022-08-26T18:33:51.293Z,59.80
2022-08-26T18:36:21.698Z,59.80
2022-08-26T18:38:52.582Z,59.40
2022-08-26T18:41:21.674Z,78.10
2022-08-26T18:43:50.782Z,61.70
2022-08-26T18:46:22.041Z,66.60
2022-08-26T18:48:51.241Z,61.50
2022-08-26T18:51:21.664Z,54.90
2022-08-26T18:53:49.924Z,55.00
2022-08-26T18:56:18.794Z,54.30
2022-08-26T18:58:47.399Z,53.60
2022-08-26T19:01:16.470Z,76.20
2022-08-26T19:03:46.858Z,67.20
2022-08-26T19:06:16.612Z,52.90
2022-08-26T19:08:45.050Z,53.30
2022-08-26T19:11:18.802Z,53.20
2022-08-26T19:14:01.319Z,53.40
2022-08-26T19:16:30.312Z,53.40
2022-08-26T19:19:01.412Z,53.60
2022-08-26T19:21:30.796Z,53.40
2022-08-26T19:24:00.385Z,53.50
2022-08-26T19:26:29.594Z,53.30
2022-08-26T19:28:58.293Z,62.00
2022-08-26T19:31:26.612Z,53.10
2022-08-26T19:33:54.761Z,52.90
2022-08-26T19:36:25.950Z,52.90
2022-08-26T19:38:55.817Z,52.50
2022-08-26T19:41:36.979Z,53.20
2022-08-26T19:44:08.968Z,53.10
2022-08-26T19:49:10.604Z,53.10
2022-08-26T19:51:40.170Z,53.00
2022-08-26T19:54:08.093Z,53.20
2022-08-26T19:56:36.592Z,53.20
2022-08-26T19:59:04.757Z,53.30
2022-08-26T20:01:33.087Z,52.90
2022-08-26T20:04:01.822Z,53.00
2022-08-26T20:06:30.997Z,53.10
2022-08-26T20:09:01.277Z,53.00
2022-08-26T20:11:29.988Z,52.90
2022-08-26T20:13:59.764Z,52.80
2022-08-26T20:16:28.128Z,52.70
2022-08-26T20:19:10.230Z,53.00
2022-08-26T20:21:40.560Z,52.60
2022-08-26T20:24:12.538Z,52.70
2022-08-26T20:26:44.310Z,52.60
2022-08-26T20:29:15.718Z,52.50
2022-08-26T20:31:44.864Z,52.50
2022-08-26T20:34:14.056Z,52.50
2022-08-26T20:36:43.662Z,52.40
2022-08-26T20:39:13.239Z,52.20
2022-08-26T20:41:42.416Z,52.50
2022-08-26T20:44:10.765Z,52.60
2022-08-26T20:46:39.043Z,52.50
2022-08-26T20:49:08.187Z,52.50
2022-08-26T20:51:37.467Z,52.40
2022-08-26T20:54:06.602Z,52.30
2022-08-26T20:56:36.907Z,52.20
2022-08-26T20:59:07.994Z,52.20
2022-08-26T21:01:42.396Z,52.60
2022-08-26T21:04:14.389Z,52.60
2022-08-26T21:06:45.122Z,52.60
2022-08-26T21:09:16.514Z,52.50
2022-08-26T21:11:46.703Z,52.30
2022-08-26T21:14:16.106Z,52.30
2022-08-26T21:16:46.350Z,52.10
2022-08-26T21:19:17.602Z,52.00
2022-08-26T21:21:46.000Z,52.50
2022-08-26T21:24:14.266Z,52.50
2022-08-26T21:26:42.902Z,52.30
2022-08-26T21:29:13.640Z,52.50
2022-08-26T21:31:46.109Z,52.80
2022-08-26T21:34:15.487Z,52.80
2022-08-26T21:36:43.820Z,52.50
2022-08-26T21:39:12.696Z,52.60
2022-08-26T21:41:42.616Z,52.50
2022-08-26T21:44:12.967Z,52.50
2022-08-26T21:46:42.020Z,52.40
2022-08-26T21:49:12.342Z,52.50
2022-08-26T21:51:43.966Z,52.40
2022-08-26T21:54:13.349Z,52.40
2022-08-26T21:56:46.573Z,52.50
2022-08-26T21:59:17.936Z,52.50
2022-08-26T22:01:46.596Z,52.80
2022-08-26T22:04:15.330Z,52.60
2022-08-26T22:06:45.103Z,52.80
2022-08-26T22:09:14.500Z,52.80
2022-08-26T22:11:42.772Z,52.80
2022-08-26T22:14:11.965Z,52.90
2022-08-26T22:16:41.831Z,52.80
2022-08-26T22:19:19.922Z,52.80
2022-08-26T22:21:49.460Z,52.70
2022-08-26T22:24:18.265Z,53.30
2022-08-26T22:26:46.803Z,52.70
2022-08-26T22:29:15.225Z,52.80
2022-08-26T22:31:44.937Z,52.80
2022-08-26T22:34:15.779Z,52.90
2022-08-26T22:36:46.564Z,53.00
2022-08-26T22:39:15.583Z,52.80
2022-08-26T22:41:45.014Z,52.90
2022-08-26T22:44:13.672Z,53.00
2022-08-26T22:46:42.846Z,52.90
2022-08-26T22:49:15.824Z,53.00
2022-08-26T22:51:44.394Z,52.90
2022-08-26T22:54:13.003Z,52.90
2022-08-26T22:56:41.746Z,52.90
2022-08-26T22:59:11.754Z,53.00
2022-08-26T23:01:43.189Z,53.10
2022-08-26T23:04:13.048Z,53.30
2022-08-26T23:06:43.375Z,53.40
2022-08-26T23:09:20.108Z,53.60
2022-08-26T23:11:50.362Z,53.60
2022-08-26T23:14:19.517Z,53.60
2022-08-26T23:16:47.871Z,53.60
2022-08-26T23:19:20.432Z,53.50
2022-08-26T23:21:49.482Z,53.60
2022-08-26T23:24:18.778Z,53.40
2022-08-26T23:26:47.398Z,53.70
2022-08-26T23:29:16.392Z,53.80
2022-08-26T23:31:45.137Z,53.60
2022-08-26T23:34:31.116Z,53.70
2022-08-26T23:37:01.095Z,53.60
2022-08-26T23:39:29.705Z,53.60
2022-08-26T23:41:58.146Z,53.80
2022-08-26T23:44:26.743Z,53.70
2022-08-26T23:46:55.018Z,53.60
2022-08-26T23:49:23.474Z,53.60
2022-08-26T23:52:09.304Z,53.50
2022-08-26T23:54:39.422Z,53.60
2022-08-26T23:57:07.910Z,53.50
2022-08-26T23:59:37.363Z,53.50
